sensor_id;sensor_type;location;lat;lon;timestamp;temperature;humidity
79140;HTU21D;68546;59.142;37.948;2023-04-06T00:00:03;2.72;74.24
79140;HTU21D;68546;59.142;37.948;2023-04-06T00:02:36;2.71;74.21
79140;HTU21D;68546;59.142;37.948;2023-04-06T00:05:02;2.68;74.22
79140;HTU21D;68546;59.142;37.948;2023-04-06T00:07:29;2.68;74.22
79140;HTU21D;68546;59.142;37.948;2023-04-06T00:09:55;2.66;74.21
79140;HTU21D;68546;59.142;37.948;2023-04-06T00:12:22;2.64;74.23
79140;HTU21D;68546;59.142;37.948;2023-04-06T00:14:48;2.64;74.24
79140;HTU21D;68546;59.142;37.948;2023-04-06T00:17:14;2.62;74.22
79140;HTU21D;68546;59.142;37.948;2023-04-06T00:19:41;2.59;74.23
79140;HTU21D;68546;59.142;37.948;2023-04-06T00:22:08;2.59;74.15
79140;HTU21D;68546;59.142;37.948;2023-04-06T00:24:34;2.57;74.10
79140;HTU21D;68546;59.142;37.948;2023-04-06T00:27:01;2.55;74.13
79140;HTU21D;68546;59.142;37.948;2023-04-06T00:29:27;2.53;74.12
79140;HTU21D;68546;59.142;37.948;2023-04-06T00:31:53;2.51;74.09
79140;HTU21D;68546;59.142;37.948;2023-04-06T00:34:20;2.49;74.03
79140;HTU21D;68546;59.142;37.948;2023-04-06T00:36:46;2.47;74.02
79140;HTU21D;68546;59.142;37.948;2023-04-06T00:39:12;2.47;74.00
79140;HTU21D;68546;59.142;37.948;2023-04-06T00:41:43;2.42;73.99
79140;HTU21D;68546;59.142;37.948;2023-04-06T00:44:11;2.41;74.00
79140;HTU21D;68546;59.142;37.948;2023-04-06T00:46:38;2.39;74.02
79140;HTU21D;68546;59.142;37.948;2023-04-06T00:49:04;2.36;74.02
79140;HTU21D;68546;59.142;37.948;2023-04-06T00:51:30;2.34;74.02
79140;HTU21D;68546;59.142;37.948;2023-04-06T00:53:57;2.32;74.04
79140;HTU21D;68546;59.142;37.948;2023-04-06T00:56:23;2.31;74.07
79140;HTU21D;68546;59.142;37.948;2023-04-06T00:58:53;2.29;74.10
79140;HTU21D;68546;59.142;37.948;2023-04-06T01:01:20;2.27;74.10
79140;HTU21D;68546;59.142;37.948;2023-04-06T01:03:48;2.26;74.12
79140;HTU21D;68546;59.142;37.948;2023-04-06T01:06:17;2.24;74.15
79140;HTU21D;68546;59.142;37.948;2023-04-06T01:08:48;2.23;74.12
79140;HTU21D;68546;59.142;37.948;2023-04-06T01:11:20;2.22;74.13
79140;HTU21D;68546;59.142;37.948;2023-04-06T01:13:48;2.20;74.13
79140;HTU21D;68546;59.142;37.948;2023-04-06T01:16:24;2.20;74.13
79140;HTU21D;68546;59.142;37.948;2023-04-06T01:19:26;2.17;74.10
79140;HTU21D;68546;59.142;37.948;2023-04-06T01:21:54;2.15;74.08
79140;HTU21D;68546;59.142;37.948;2023-04-06T01:24:23;2.15;74.05
79140;HTU21D;68546;59.142;37.948;2023-04-06T01:27:04;2.13;74.02
79140;HTU21D;68546;59.142;37.948;2023-04-06T01:29:49;2.11;73.96
79140;HTU21D;68546;59.142;37.948;2023-04-06T01:32:27;2.08;73.94
79140;HTU21D;68546;59.142;37.948;2023-04-06T01:34:54;2.07;73.97
79140;HTU21D;68546;59.142;37.948;2023-04-06T01:37:21;2.05;73.97
79140;HTU21D;68546;59.142;37.948;2023-04-06T01:39:48;2.03;73.94
79140;HTU21D;68546;59.142;37.948;2023-04-06T01:42:24;2.01;73.95
79140;HTU21D;68546;59.142;37.948;2023-04-06T01:44:52;2.00;73.91
79140;HTU21D;68546;59.142;37.948;2023-04-06T01:47:18;1.98;73.93
79140;HTU21D;68546;59.142;37.948;2023-04-06T01:49:45;1.99;73.91
79140;HTU21D;68546;59.142;37.948;2023-04-06T01:52:14;1.97;73.90
79140;HTU21D;68546;59.142;37.948;2023-04-06T01:54:45;1.95;73.89
79140;HTU21D;68546;59.142;37.948;2023-04-06T01:57:19;1.94;73.89
79140;HTU21D;68546;59.142;37.948;2023-04-06T01:59:52;1.94;73.90
79140;HTU21D;68546;59.142;37.948;2023-04-06T02:02:39;1.93;73.84
79140;HTU21D;68546;59.142;37.948;2023-04-06T02:05:11;1.90;73.85
79140;HTU21D;68546;59.142;37.948;2023-04-06T02:07:39;1.87;73.82
79140;HTU21D;68546;59.142;37.948;2023-04-06T02:10:12;1.87;73.84
79140;HTU21D;68546;59.142;37.948;2023-04-06T02:12:39;1.86;73.84
79140;HTU21D;68546;59.142;37.948;2023-04-06T02:15:09;1.84;73.84
79140;HTU21D;68546;59.142;37.948;2023-04-06T02:17:36;1.84;73.80
79140;HTU21D;68546;59.142;37.948;2023-04-06T02:20:03;1.83;73.78
79140;HTU21D;68546;59.142;37.948;2023-04-06T02:22:29;1.83;73.70
79140;HTU21D;68546;59.142;37.948;2023-04-06T02:24:56;1.83;73.60
79140;HTU21D;68546;59.142;37.948;2023-04-06T02:27:22;1.82;73.54
79140;HTU21D;68546;59.142;37.948;2023-04-06T02:29:49;1.81;73.48
79140;HTU21D;68546;59.142;37.948;2023-04-06T02:32:19;1.79;73.45
79140;HTU21D;68546;59.142;37.948;2023-04-06T02:34:47;1.77;73.43
79140;HTU21D;68546;59.142;37.948;2023-04-06T02:37:14;1.77;73.38
79140;HTU21D;68546;59.142;37.948;2023-04-06T02:39:41;1.75;73.29
79140;HTU21D;68546;59.142;37.948;2023-04-06T02:42:09;1.72;73.27
79140;HTU21D;68546;59.142;37.948;2023-04-06T02:44:35;1.72;73.32
79140;HTU21D;68546;59.142;37.948;2023-04-06T02:47:02;1.71;73.31
79140;HTU21D;68546;59.142;37.948;2023-04-06T02:49:29;1.70;73.32
79140;HTU21D;68546;59.142;37.948;2023-04-06T02:51:58;1.69;73.28
79140;HTU21D;68546;59.142;37.948;2023-04-06T02:54:29;1.70;73.23
79140;HTU21D;68546;59.142;37.948;2023-04-06T02:56:56;1.69;73.23
79140;HTU21D;68546;59.142;37.948;2023-04-06T02:59:29;1.70;73.08
79140;HTU21D;68546;59.142;37.948;2023-04-06T03:02:04;1.69;73.01
79140;HTU21D;68546;59.142;37.948;2023-04-06T03:04:31;1.69;72.95
79140;HTU21D;68546;59.142;37.948;2023-04-06T03:07:00;1.69;72.92
79140;HTU21D;68546;59.142;37.948;2023-04-06T03:09:37;1.69;72.83
79140;HTU21D;68546;59.142;37.948;2023-04-06T03:12:04;1.68;72.77
79140;HTU21D;68546;59.142;37.948;2023-04-06T03:14:39;1.67;72.71
79140;HTU21D;68546;59.142;37.948;2023-04-06T03:17:06;1.68;72.70
79140;HTU21D;68546;59.142;37.948;2023-04-06T03:19:32;1.68;72.61
79140;HTU21D;68546;59.142;37.948;2023-04-06T03:22:02;1.67;72.39
79140;HTU21D;68546;59.142;37.948;2023-04-06T03:24:28;1.67;72.47
79140;HTU21D;68546;59.142;37.948;2023-04-06T03:26:55;1.67;72.37
79140;HTU21D;68546;59.142;37.948;2023-04-06T03:29:22;1.67;72.45
79140;HTU21D;68546;59.142;37.948;2023-04-06T03:31:48;1.67;72.36
79140;HTU21D;68546;59.142;37.948;2023-04-06T03:34:32;1.69;72.37
79140;HTU21D;68546;59.142;37.948;2023-04-06T03:36:58;1.69;72.34
79140;HTU21D;68546;59.142;37.948;2023-04-06T03:39:25;1.70;72.19
79140;HTU21D;68546;59.142;37.948;2023-04-06T03:41:53;1.71;72.25
79140;HTU21D;68546;59.142;37.948;2023-04-06T03:44:31;1.79;72.43
79140;HTU21D;68546;59.142;37.948;2023-04-06T03:46:58;1.88;72.59
79140;HTU21D;68546;59.142;37.948;2023-04-06T03:49:25;1.99;72.68
79140;HTU21D;68546;59.142;37.948;2023-04-06T03:51:53;2.09;72.61
79140;HTU21D;68546;59.142;37.948;2023-04-06T03:54:20;2.19;72.26
79140;HTU21D;68546;59.142;37.948;2023-04-06T03:56:46;2.27;72.12
79140;HTU21D;68546;59.142;37.948;2023-04-06T03:59:13;2.35;72.24
79140;HTU21D;68546;59.142;37.948;2023-04-06T04:01:39;2.43;71.95
79140;HTU21D;68546;59.142;37.948;2023-04-06T04:04:06;2.53;71.90
79140;HTU21D;68546;59.142;37.948;2023-04-06T04:06:33;2.60;71.27
79140;HTU21D;68546;59.142;37.948;2023-04-06T04:08:59;2.66;71.35
79140;HTU21D;68546;59.142;37.948;2023-04-06T04:11:26;2.73;71.26
79140;HTU21D;68546;59.142;37.948;2023-04-06T04:13:57;2.80;70.93
79140;HTU21D;68546;59.142;37.948;2023-04-06T04:16:24;2.87;70.87
79140;HTU21D;68546;59.142;37.948;2023-04-06T04:18:50;2.90;70.76
79140;HTU21D;68546;59.142;37.948;2023-04-06T04:21:17;2.95;70.36
79140;HTU21D;68546;59.142;37.948;2023-04-06T04:23:43;3.00;70.30
79140;HTU21D;68546;59.142;37.948;2023-04-06T04:26:10;3.03;70.20
79140;HTU21D;68546;59.142;37.948;2023-04-06T04:28:36;3.08;70.11
79140;HTU21D;68546;59.142;37.948;2023-04-06T04:31:04;3.11;70.26
79140;HTU21D;68546;59.142;37.948;2023-04-06T04:33:34;3.16;70.29
79140;HTU21D;68546;59.142;37.948;2023-04-06T04:36:04;3.21;70.30
79140;HTU21D;68546;59.142;37.948;2023-04-06T04:38:38;3.25;70.23
79140;HTU21D;68546;59.142;37.948;2023-04-06T04:41:05;3.32;70.04
79140;HTU21D;68546;59.142;37.948;2023-04-06T04:43:33;3.36;69.81
79140;HTU21D;68546;59.142;37.948;2023-04-06T04:46:01;3.38;69.87
79140;HTU21D;68546;59.142;37.948;2023-04-06T04:48:37;3.38;69.67
79140;HTU21D;68546;59.142;37.948;2023-04-06T04:51:06;3.39;69.63
79140;HTU21D;68546;59.142;37.948;2023-04-06T04:53:46;3.38;69.36
79140;HTU21D;68546;59.142;37.948;2023-04-06T04:56:21;3.38;69.05
79140;HTU21D;68546;59.142;37.948;2023-04-06T04:58:52;3.36;69.10
79140;HTU21D;68546;59.142;37.948;2023-04-06T05:01:20;3.39;69.14
79140;HTU21D;68546;59.142;37.948;2023-04-06T05:03:46;3.39;69.05
79140;HTU21D;68546;59.142;37.948;2023-04-06T05:06:15;3.40;69.07
79140;HTU21D;68546;59.142;37.948;2023-04-06T05:08:42;3.41;68.80
79140;HTU21D;68546;59.142;37.948;2023-04-06T05:11:09;3.43;68.51
79140;HTU21D;68546;59.142;37.948;2023-04-06T05:13:41;3.45;68.70
79140;HTU21D;68546;59.142;37.948;2023-04-06T05:16:13;3.46;68.87
79140;HTU21D;68546;59.142;37.948;2023-04-06T05:18:39;3.52;68.90
79140;HTU21D;68546;59.142;37.948;2023-04-06T05:21:06;3.55;68.49
79140;HTU21D;68546;59.142;37.948;2023-04-06T05:23:41;3.59;68.62
79140;HTU21D;68546;59.142;37.948;2023-04-06T05:26:08;3.62;68.64
79140;HTU21D;68546;59.142;37.948;2023-04-06T05:28:34;3.67;68.30
79140;HTU21D;68546;59.142;37.948;2023-04-06T05:31:03;3.70;67.92
79140;HTU21D;68546;59.142;37.948;2023-04-06T05:33:36;3.76;68.13
79140;HTU21D;68546;59.142;37.948;2023-04-06T05:36:09;3.79;68.07
79140;HTU21D;68546;59.142;37.948;2023-04-06T05:38:40;3.82;67.87
79140;HTU21D;68546;59.142;37.948;2023-04-06T05:41:17;3.86;67.71
79140;HTU21D;68546;59.142;37.948;2023-04-06T05:43:43;3.89;67.57
79140;HTU21D;68546;59.142;37.948;2023-04-06T05:46:10;3.94;67.55
79140;HTU21D;68546;59.142;37.948;2023-04-06T05:48:37;4.00;67.45
79140;HTU21D;68546;59.142;37.948;2023-04-06T05:51:03;4.05;67.17
79140;HTU21D;68546;59.142;37.948;2023-04-06T05:53:40;4.09;66.84
79140;HTU21D;68546;59.142;37.948;2023-04-06T05:56:07;4.14;66.24
79140;HTU21D;68546;59.142;37.948;2023-04-06T05:58:33;4.18;66.36
79140;HTU21D;68546;59.142;37.948;2023-04-06T06:01:00;4.23;66.53
79140;HTU21D;68546;59.142;37.948;2023-04-06T06:03:35;4.29;66.60
79140;HTU21D;68546;59.142;37.948;2023-04-06T06:06:03;4.35;66.68
79140;HTU21D;68546;59.142;37.948;2023-04-06T06:08:37;4.41;66.71
79140;HTU21D;68546;59.142;37.948;2023-04-06T06:11:09;4.47;66.75
79140;HTU21D;68546;59.142;37.948;2023-04-06T06:13:36;4.54;66.35
79140;HTU21D;68546;59.142;37.948;2023-04-06T06:16:02;4.62;66.14
79140;HTU21D;68546;59.142;37.948;2023-04-06T06:18:33;4.68;66.04
79140;HTU21D;68546;59.142;37.948;2023-04-06T06:20:59;4.75;65.69
79140;HTU21D;68546;59.142;37.948;2023-04-06T06:23:26;4.81;65.59
79140;HTU21D;68546;59.142;37.948;2023-04-06T06:25:53;4.87;65.34
79140;HTU21D;68546;59.142;37.948;2023-04-06T06:28:23;4.93;65.33
79140;HTU21D;68546;59.142;37.948;2023-04-06T06:30:51;5.01;65.08
79140;HTU21D;68546;59.142;37.948;2023-04-06T06:33:21;5.06;65.04
79140;HTU21D;68546;59.142;37.948;2023-04-06T06:35:50;5.13;64.72
79140;HTU21D;68546;59.142;37.948;2023-04-06T06:38:17;5.21;64.66
79140;HTU21D;68546;59.142;37.948;2023-04-06T06:40:45;5.28;63.96
79140;HTU21D;68546;59.142;37.948;2023-04-06T06:43:13;5.36;63.68
79140;HTU21D;68546;59.142;37.948;2023-04-06T06:45:58;5.45;64.04
79140;HTU21D;68546;59.142;37.948;2023-04-06T06:48:25;5.52;63.52
79140;HTU21D;68546;59.142;37.948;2023-04-06T06:50:51;5.63;63.56
79140;HTU21D;68546;59.142;37.948;2023-04-06T06:53:17;5.71;63.15
79140;HTU21D;68546;59.142;37.948;2023-04-06T06:55:44;5.78;63.03
79140;HTU21D;68546;59.142;37.948;2023-04-06T06:58:10;5.85;62.03
79140;HTU21D;68546;59.142;37.948;2023-04-06T07:00:37;5.91;61.60
79140;HTU21D;68546;59.142;37.948;2023-04-06T07:03:04;5.98;60.90
79140;HTU21D;68546;59.142;37.948;2023-04-06T07:05:30;6.05;60.28
79140;HTU21D;68546;59.142;37.948;2023-04-06T07:07:58;6.11;59.99
79140;HTU21D;68546;59.142;37.948;2023-04-06T07:10:25;6.17;59.27
79140;HTU21D;68546;59.142;37.948;2023-04-06T07:12:52;6.23;58.25
79140;HTU21D;68546;59.142;37.948;2023-04-06T07:15:18;6.27;58.59
79140;HTU21D;68546;59.142;37.948;2023-04-06T07:17:45;6.31;58.76
79140;HTU21D;68546;59.142;37.948;2023-04-06T07:20:12;6.36;57.27
79140;HTU21D;68546;59.142;37.948;2023-04-06T07:22:39;6.40;56.81
79140;HTU21D;68546;59.142;37.948;2023-04-06T07:25:06;6.43;56.35
79140;HTU21D;68546;59.142;37.948;2023-04-06T07:27:33;6.46;56.26
79140;HTU21D;68546;59.142;37.948;2023-04-06T07:30:00;6.51;54.71
79140;HTU21D;68546;59.142;37.948;2023-04-06T07:32:26;6.52;54.74
79140;HTU21D;68546;59.142;37.948;2023-04-06T07:34:53;6.54;54.36
79140;HTU21D;68546;59.142;37.948;2023-04-06T07:37:20;6.58;52.85
79140;HTU21D;68546;59.142;37.948;2023-04-06T07:39:46;6.59;52.47
79140;HTU21D;68546;59.142;37.948;2023-04-06T07:42:13;6.63;53.20
79140;HTU21D;68546;59.142;37.948;2023-04-06T07:44:39;6.65;53.59
79140;HTU21D;68546;59.142;37.948;2023-04-06T07:47:06;6.68;53.58
79140;HTU21D;68546;59.142;37.948;2023-04-06T07:49:32;6.72;53.87
79140;HTU21D;68546;59.142;37.948;2023-04-06T07:52:00;6.76;53.14
79140;HTU21D;68546;59.142;37.948;2023-04-06T07:54:29;6.80;52.69
79140;HTU21D;68546;59.142;37.948;2023-04-06T07:56:55;6.84;52.88
79140;HTU21D;68546;59.142;37.948;2023-04-06T07:59:22;6.87;52.47
79140;HTU21D;68546;59.142;37.948;2023-04-06T08:01:48;6.91;52.20
79140;HTU21D;68546;59.142;37.948;2023-04-06T08:04:14;6.96;51.86
79140;HTU21D;68546;59.142;37.948;2023-04-06T08:06:41;6.99;52.04
79140;HTU21D;68546;59.142;37.948;2023-04-06T08:09:07;7.01;51.74
79140;HTU21D;68546;59.142;37.948;2023-04-06T08:11:33;7.05;51.77
79140;HTU21D;68546;59.142;37.948;2023-04-06T08:14:00;7.11;51.42
79140;HTU21D;68546;59.142;37.948;2023-04-06T08:16:26;7.15;51.30
79140;HTU21D;68546;59.142;37.948;2023-04-06T08:18:53;7.19;51.43
79140;HTU21D;68546;59.142;37.948;2023-04-06T08:21:19;7.23;51.28
79140;HTU21D;68546;59.142;37.948;2023-04-06T08:23:45;7.27;51.39
79140;HTU21D;68546;59.142;37.948;2023-04-06T08:26:12;7.32;50.39
79140;HTU21D;68546;59.142;37.948;2023-04-06T08:28:38;7.37;50.44
79140;HTU21D;68546;59.142;37.948;2023-04-06T08:31:05;7.42;50.66
79140;HTU21D;68546;59.142;37.948;2023-04-06T08:33:33;7.47;50.65
79140;HTU21D;68546;59.142;37.948;2023-04-06T08:36:13;7.53;50.03
79140;HTU21D;68546;59.142;37.948;2023-04-06T08:38:40;7.56;49.88
79140;HTU21D;68546;59.142;37.948;2023-04-06T08:41:11;7.60;49.91
79140;HTU21D;68546;59.142;37.948;2023-04-06T08:43:43;7.65;48.94
79140;HTU21D;68546;59.142;37.948;2023-04-06T08:46:10;7.69;48.66
79140;HTU21D;68546;59.142;37.948;2023-04-06T08:48:39;7.71;49.12
79140;HTU21D;68546;59.142;37.948;2023-04-06T08:51:08;7.75;48.81
79140;HTU21D;68546;59.142;37.948;2023-04-06T08:53:35;7.79;48.61
79140;HTU21D;68546;59.142;37.948;2023-04-06T08:56:03;7.83;47.67
79140;HTU21D;68546;59.142;37.948;2023-04-06T08:58:34;7.85;47.43
79140;HTU21D;68546;59.142;37.948;2023-04-06T09:01:06;7.88;47.65
79140;HTU21D;68546;59.142;37.948;2023-04-06T09:03:37;7.90;47.02
79140;HTU21D;68546;59.142;37.948;2023-04-06T09:06:06;7.92;47.48
79140;HTU21D;68546;59.142;37.948;2023-04-06T09:08:37;7.96;47.50
79140;HTU21D;68546;59.142;37.948;2023-04-06T09:11:04;8.01;47.83
79140;HTU21D;68546;59.142;37.948;2023-04-06T09:13:31;8.04;47.14
79140;HTU21D;68546;59.142;37.948;2023-04-06T09:16:05;8.11;47.50
79140;HTU21D;68546;59.142;37.948;2023-04-06T09:18:33;8.13;46.77
79140;HTU21D;68546;59.142;37.948;2023-04-06T09:21:04;8.17;46.79
79140;HTU21D;68546;59.142;37.948;2023-04-06T09:23:31;8.19;46.80
79140;HTU21D;68546;59.142;37.948;2023-04-06T09:26:13;8.23;46.28
79140;HTU21D;68546;59.142;37.948;2023-04-06T09:28:53;8.26;46.31
79140;HTU21D;68546;59.142;37.948;2023-04-06T09:31:26;8.29;46.41
79140;HTU21D;68546;59.142;37.948;2023-04-06T09:33:53;8.30;45.92
79140;HTU21D;68546;59.142;37.948;2023-04-06T09:36:29;8.33;46.22
79140;HTU21D;68546;59.142;37.948;2023-04-06T09:38:58;8.34;46.15
79140;HTU21D;68546;59.142;37.948;2023-04-06T09:46:33;8.45;45.46
79140;HTU21D;68546;59.142;37.948;2023-04-06T09:49:02;8.47;45.49
79140;HTU21D;68546;59.142;37.948;2023-04-06T09:51:34;8.49;45.12
79140;HTU21D;68546;59.142;37.948;2023-04-06T09:54:02;8.51;44.90
79140;HTU21D;68546;59.142;37.948;2023-04-06T09:56:36;8.55;44.76
79140;HTU21D;68546;59.142;37.948;2023-04-06T09:59:09;8.58;45.00
79140;HTU21D;68546;59.142;37.948;2023-04-06T10:01:39;8.59;45.18
79140;HTU21D;68546;59.142;37.948;2023-04-06T10:04:19;8.62;44.78
79140;HTU21D;68546;59.142;37.948;2023-04-06T10:06:47;8.66;44.77
79140;HTU21D;68546;59.142;37.948;2023-04-06T10:09:23;8.67;44.89
79140;HTU21D;68546;59.142;37.948;2023-04-06T10:11:51;8.68;44.69
79140;HTU21D;68546;59.142;37.948;2023-04-06T10:14:18;8.71;44.65
79140;HTU21D;68546;59.142;37.948;2023-04-06T10:16:46;8.73;44.13
79140;HTU21D;68546;59.142;37.948;2023-04-06T10:19:20;8.75;44.23
79140;HTU21D;68546;59.142;37.948;2023-04-06T10:21:51;8.76;43.90
79140;HTU21D;68546;59.142;37.948;2023-04-06T10:24:20;8.76;44.32
79140;HTU21D;68546;59.142;37.948;2023-04-06T10:27:06;8.78;43.71
79140;HTU21D;68546;59.142;37.948;2023-04-06T10:29:46;8.80;44.24
79140;HTU21D;68546;59.142;37.948;2023-04-06T10:32:14;8.79;43.69
79140;HTU21D;68546;59.142;37.948;2023-04-06T10:34:41;8.80;43.13
79140;HTU21D;68546;59.142;37.948;2023-04-06T10:37:12;8.82;43.18
79140;HTU21D;68546;59.142;37.948;2023-04-06T10:39:52;8.83;43.53
79140;HTU21D;68546;59.142;37.948;2023-04-06T10:42:36;8.83;42.97
79140;HTU21D;68546;59.142;37.948;2023-04-06T10:45:07;8.83;42.62
79140;HTU21D;68546;59.142;37.948;2023-04-06T10:47:40;8.83;42.87
79140;HTU21D;68546;59.142;37.948;2023-04-06T10:50:07;8.83;43.26
79140;HTU21D;68546;59.142;37.948;2023-04-06T10:52:33;8.86;43.32
79140;HTU21D;68546;59.142;37.948;2023-04-06T10:55:00;8.88;43.38
79140;HTU21D;68546;59.142;37.948;2023-04-06T10:57:30;8.91;43.65
79140;HTU21D;68546;59.142;37.948;2023-04-06T10:59:59;8.94;43.61
79140;HTU21D;68546;59.142;37.948;2023-04-06T11:02:25;8.97;43.32
79140;HTU21D;68546;59.142;37.948;2023-04-06T11:04:58;9.02;43.00
79140;HTU21D;68546;59.142;37.948;2023-04-06T11:07:26;9.03;43.22
79140;HTU21D;68546;59.142;37.948;2023-04-06T11:09:53;9.06;43.25
79140;HTU21D;68546;59.142;37.948;2023-04-06T11:12:26;9.09;42.73
79140;HTU21D;68546;59.142;37.948;2023-04-06T11:15:01;9.10;42.87
79140;HTU21D;68546;59.142;37.948;2023-04-06T11:17:35;9.12;42.74
79140;HTU21D;68546;59.142;37.948;2023-04-06T11:20:03;9.15;42.77
79140;HTU21D;68546;59.142;37.948;2023-04-06T11:22:31;9.18;42.50
79140;HTU21D;68546;59.142;37.948;2023-04-06T11:25:07;9.20;42.01
79140;HTU21D;68546;59.142;37.948;2023-04-06T11:27:34;9.20;41.90
79140;HTU21D;68546;59.142;37.948;2023-04-06T11:30:02;9.22;41.65
79140;HTU21D;68546;59.142;37.948;2023-04-06T11:32:28;9.23;41.36
79140;HTU21D;68546;59.142;37.948;2023-04-06T11:34:58;9.25;41.68
79140;HTU21D;68546;59.142;37.948;2023-04-06T11:37:26;9.26;41.60
79140;HTU21D;68546;59.142;37.948;2023-04-06T11:39:55;9.27;41.10
79140;HTU21D;68546;59.142;37.948;2023-04-06T11:42:23;9.29;41.11
79140;HTU21D;68546;59.142;37.948;2023-04-06T11:44:57;9.30;41.14
79140;HTU21D;68546;59.142;37.948;2023-04-06T11:47:35;9.29;41.11
79140;HTU21D;68546;59.142;37.948;2023-04-06T11:50:12;9.32;40.76
79140;HTU21D;68546;59.142;37.948;2023-04-06T11:52:42;9.31;40.68
79140;HTU21D;68546;59.142;37.948;2023-04-06T11:55:17;9.31;40.81
79140;HTU21D;68546;59.142;37.948;2023-04-06T11:57:44;9.33;40.95
79140;HTU21D;68546;59.142;37.948;2023-04-06T12:00:11;9.33;40.61
79140;HTU21D;68546;59.142;37.948;2023-04-06T12:02:39;9.34;40.37
79140;HTU21D;68546;59.142;37.948;2023-04-06T12:05:06;9.34;39.87
79140;HTU21D;68546;59.142;37.948;2023-04-06T12:07:33;9.36;39.91
79140;HTU21D;68546;59.142;37.948;2023-04-06T12:10:01;9.36;40.07
79140;HTU21D;68546;59.142;37.948;2023-04-06T12:12:29;9.37;40.25
79140;HTU21D;68546;59.142;37.948;2023-04-06T12:14:55;9.39;39.20
79140;HTU21D;68546;59.142;37.948;2023-04-06T12:17:22;9.39;39.36
79140;HTU21D;68546;59.142;37.948;2023-04-06T12:19:49;9.39;39.39
79140;HTU21D;68546;59.142;37.948;2023-04-06T12:22:17;9.39;39.81
79140;HTU21D;68546;59.142;37.948;2023-04-06T12:24:43;9.41;39.88
79140;HTU21D;68546;59.142;37.948;2023-04-06T12:27:10;9.44;40.00
79140;HTU21D;68546;59.142;37.948;2023-04-06T12:29:38;9.46;40.12
79140;HTU21D;68546;59.142;37.948;2023-04-06T12:32:04;9.49;40.17
79140;HTU21D;68546;59.142;37.948;2023-04-06T12:34:32;9.49;39.74
79140;HTU21D;68546;59.142;37.948;2023-04-06T12:36:58;9.50;39.25
79140;HTU21D;68546;59.142;37.948;2023-04-06T12:39:27;9.51;38.70
79140;HTU21D;68546;59.142;37.948;2023-04-06T12:41:53;9.50;38.73
79140;HTU21D;68546;59.142;37.948;2023-04-06T12:44:19;9.48;38.30
79140;HTU21D;68546;59.142;37.948;2023-04-06T12:46:46;9.48;38.63
79140;HTU21D;68546;59.142;37.948;2023-04-06T12:49:12;9.48;38.68
79140;HTU21D;68546;59.142;37.948;2023-04-06T12:51:38;9.48;38.79
79140;HTU21D;68546;59.142;37.948;2023-04-06T12:54:05;9.48;39.04
79140;HTU21D;68546;59.142;37.948;2023-04-06T12:56:32;9.49;39.20
79140;HTU21D;68546;59.142;37.948;2023-04-06T12:58:58;9.48;38.75
79140;HTU21D;68546;59.142;37.948;2023-04-06T13:01:25;9.50;37.97
79140;HTU21D;68546;59.142;37.948;2023-04-06T13:03:53;9.50;38.13
79140;HTU21D;68546;59.142;37.948;2023-04-06T13:06:20;9.50;38.16
79140;HTU21D;68546;59.142;37.948;2023-04-06T13:08:47;9.50;37.82
79140;HTU21D;68546;59.142;37.948;2023-04-06T13:11:15;9.51;38.13
79140;HTU21D;68546;59.142;37.948;2023-04-06T13:13:42;9.50;38.46
79140;HTU21D;68546;59.142;37.948;2023-04-06T13:16:08;9.51;38.55
79140;HTU21D;68546;59.142;37.948;2023-04-06T13:18:35;9.51;38.49
79140;HTU21D;68546;59.142;37.948;2023-04-06T13:21:05;9.51;38.65
79140;HTU21D;68546;59.142;37.948;2023-04-06T13:23:34;9.51;38.69
79140;HTU21D;68546;59.142;37.948;2023-04-06T13:26:05;9.53;38.65
79140;HTU21D;68546;59.142;37.948;2023-04-06T13:28:34;9.52;38.59
79140;HTU21D;68546;59.142;37.948;2023-04-06T13:31:02;9.55;38.85
79140;HTU21D;68546;59.142;37.948;2023-04-06T13:33:29;9.56;38.94
79140;HTU21D;68546;59.142;37.948;2023-04-06T13:35:56;9.56;38.84
79140;HTU21D;68546;59.142;37.948;2023-04-06T13:38:22;9.59;39.01
79140;HTU21D;68546;59.142;37.948;2023-04-06T13:40:52;9.60;38.49
79140;HTU21D;68546;59.142;37.948;2023-04-06T13:43:18;9.57;38.47
79140;HTU21D;68546;59.142;37.948;2023-04-06T13:45:54;9.59;38.59
79140;HTU21D;68546;59.142;37.948;2023-04-06T13:48:24;9.59;38.65
79140;HTU21D;68546;59.142;37.948;2023-04-06T13:50:51;9.59;38.69
79140;HTU21D;68546;59.142;37.948;2023-04-06T13:53:18;9.56;38.71
79140;HTU21D;68546;59.142;37.948;2023-04-06T13:55:55;9.56;38.69
79140;HTU21D;68546;59.142;37.948;2023-04-06T13:58:21;9.56;38.40
79140;HTU21D;68546;59.142;37.948;2023-04-06T14:00:47;9.57;38.03
79140;HTU21D;68546;59.142;37.948;2023-04-06T14:03:14;9.54;38.09
79140;HTU21D;68546;59.142;37.948;2023-04-06T14:05:40;9.54;37.69
79140;HTU21D;68546;59.142;37.948;2023-04-06T14:08:06;9.52;37.85
79140;HTU21D;68546;59.142;37.948;2023-04-06T14:10:39;9.52;37.54
79140;HTU21D;68546;59.142;37.948;2023-04-06T14:13:06;9.52;37.76
79140;HTU21D;68546;59.142;37.948;2023-04-06T14:15:34;9.51;38.04
79140;HTU21D;68546;59.142;37.948;2023-04-06T14:18:01;9.49;37.80
79140;HTU21D;68546;59.142;37.948;2023-04-06T14:20:27;9.50;37.89
79140;HTU21D;68546;59.142;37.948;2023-04-06T14:22:53;9.49;37.80
79140;HTU21D;68546;59.142;37.948;2023-04-06T14:25:21;9.48;38.06
79140;HTU21D;68546;59.142;37.948;2023-04-06T14:27:48;9.48;38.07
79140;HTU21D;68546;59.142;37.948;2023-04-06T14:30:14;9.46;38.12
79140;HTU21D;68546;59.142;37.948;2023-04-06T14:32:41;9.44;37.86
79140;HTU21D;68546;59.142;37.948;2023-04-06T14:35:08;9.44;38.00
79140;HTU21D;68546;59.142;37.948;2023-04-06T14:37:34;9.44;38.18
79140;HTU21D;68546;59.142;37.948;2023-04-06T14:40:01;9.41;37.53
79140;HTU21D;68546;59.142;37.948;2023-04-06T14:42:28;9.39;37.82
79140;HTU21D;68546;59.142;37.948;2023-04-06T14:44:55;9.40;37.67
79140;HTU21D;68546;59.142;37.948;2023-04-06T14:47:21;9.38;37.98
79140;HTU21D;68546;59.142;37.948;2023-04-06T14:49:50;9.36;37.91
79140;HTU21D;68546;59.142;37.948;2023-04-06T14:52:17;9.36;37.83
79140;HTU21D;68546;59.142;37.948;2023-04-06T14:54:44;9.35;37.73
79140;HTU21D;68546;59.142;37.948;2023-04-06T14:57:11;9.33;37.93
79140;HTU21D;68546;59.142;37.948;2023-04-06T14:59:37;9.31;38.02
79140;HTU21D;68546;59.142;37.948;2023-04-06T15:02:03;9.30;38.08
79140;HTU21D;68546;59.142;37.948;2023-04-06T15:04:30;9.29;38.08
79140;HTU21D;68546;59.142;37.948;2023-04-06T15:06:56;9.27;38.11
79140;HTU21D;68546;59.142;37.948;2023-04-06T15:09:23;9.26;37.74
79140;HTU21D;68546;59.142;37.948;2023-04-06T15:11:49;9.25;38.03
79140;HTU21D;68546;59.142;37.948;2023-04-06T15:14:16;9.22;38.13
79140;HTU21D;68546;59.142;37.948;2023-04-06T15:16:42;9.20;37.90
79140;HTU21D;68546;59.142;37.948;2023-04-06T15:19:09;9.18;37.88
79140;HTU21D;68546;59.142;37.948;2023-04-06T15:21:36;9.16;37.98
79140;HTU21D;68546;59.142;37.948;2023-04-06T15:24:03;9.12;38.04
79140;HTU21D;68546;59.142;37.948;2023-04-06T15:26:32;9.08;38.01
79140;HTU21D;68546;59.142;37.948;2023-04-06T15:28:59;9.06;38.06